Time;durP1;ratioP1;P1;durP2;ratioP2;P2;SDS_P1;SDS_P2;PMS_P1;PMS_P2;Temp;Humidity;BMP_temperature;BMP_pressure;BME280_temperature;BME280_humidity;BME280_pressure;Samples;Min_cycle;Max_cycle;Signal;HPM_P1;HPM_P2
2022/10/29 00:01:36;;;;;;;8.90;4.20;;;16.00;99.90;;;;;;5033212;28;20174;-91
2022/10/29 00:04:01;;;;;;;6.43;3.17;;;16.00;99.90;;;;;;5032817;28;20586;-89
2022/10/29 00:06:27;;;;;;;6.33;3.53;;;15.90;99.90;;;;;;5032664;28;20187;-85
2022/10/29 00:08:52;;;;;;;9.50;2.57;;;16.00;99.90;;;;;;5032981;28;20181;-88
2022/10/29 00:11:20;;;;;;;8.17;2.97;;;15.90;99.90;;;;;;5032671;28;20302;-89
2022/10/29 00:13:46;;;;;;;10.23;2.83;;;15.80;99.90;;;;;;5032449;28;20173;-85
2022/10/29 00:16:15;;;;;;;8.10;2.90;;;15.70;99.90;;;;;;5032508;28;20496;-86
2022/10/29 00:18:41;;;;;;;5.20;2.83;;;15.60;99.90;;;;;;5032842;28;20424;-87
2022/10/29 00:21:11;;;;;;;6.67;2.87;;;15.60;99.90;;;;;;5036143;28;20411;-86
2022/10/29 00:23:37;;;;;;;9.27;2.43;;;15.50;99.90;;;;;;5036532;28;20532;-85
2022/10/29 00:26:03;;;;;;;8.80;2.10;;;15.40;99.90;;;;;;5036432;28;20769;-85
2022/10/29 00:28:28;;;;;;;4.17;1.77;;;15.40;99.90;;;;;;5036501;28;20248;-86
2022/10/29 00:30:54;;;;;;;6.07;2.00;;;15.40;99.90;;;;;;5018732;28;20526;-88
2022/10/29 00:33:19;;;;;;;11.87;2.20;;;15.30;99.90;;;;;;5036243;28;20173;-86
2022/10/29 00:35:56;;;;;;;6.10;2.13;;;15.30;99.90;;;;;;5036023;28;20172;-86
2022/10/29 00:38:22;;;;;;;9.03;3.37;;;15.30;99.90;;;;;;5036166;28;20237;-85
2022/10/29 00:40:47;;;;;;;6.73;1.40;;;15.20;99.90;;;;;;5036165;28;20464;-85
2022/10/29 00:43:15;;;;;;;9.13;2.23;;;15.20;99.90;;;;;;5036255;28;20791;-88
2022/10/29 00:45:48;;;;;;;6.03;1.60;;;15.10;99.90;;;;;;5018525;28;20182;-86
2022/10/29 00:48:14;;;;;;;10.43;3.37;;;15.10;99.90;;;;;;5036138;28;20410;-85
2022/10/29 00:50:39;;;;;;;9.07;2.60;;;15.00;99.90;;;;;;5017886;28;20462;-86
2022/10/29 00:53:05;;;;;;;5.37;2.17;;;15.00;99.90;;;;;;5036005;28;20242;-90
2022/10/29 00:55:31;;;;;;;7.83;2.93;;;15.00;99.90;;;;;;5035860;28;20172;-85
2022/10/29 00:57:57;;;;;;;7.47;2.63;;;15.00;99.90;;;;;;5035876;28;20216;-87
2022/10/29 01:00:22;;;;;;;10.93;2.57;;;15.00;99.90;;;;;;5035982;28;20912;-89
2022/10/29 01:02:48;;;;;;;9.00;3.10;;;15.10;99.90;;;;;;5035848;28;20426;-88
2022/10/29 01:05:18;;;;;;;6.57;3.00;;;15.00;99.90;;;;;;5035564;28;20181;-87
2022/10/29 01:07:45;;;;;;;10.70;2.80;;;15.00;99.90;;;;;;5035899;28;20412;-88
2022/10/29 01:10:11;;;;;;;4.70;2.33;;;15.00;99.90;;;;;;5035716;28;20410;-89
2022/10/29 01:12:59;;;;;;;9.57;2.87;;;15.10;99.90;;;;;;5017875;28;20415;-90
2022/10/29 01:16:04;;;;;;;6.37;2.87;;;15.00;99.90;;;;;;5017946;28;20410;-85
2022/10/29 01:18:37;;;;;;;8.60;3.43;;;15.00;99.90;;;;;;4995031;28;20450;-85
2022/10/29 01:21:30;;;;;;;10.30;2.73;;;15.00;99.90;;;;;;5034923;28;20435;-86
2022/10/29 01:24:37;;;;;;;9.20;3.97;;;15.10;99.90;;;;;;5035346;28;20414;-86
2022/10/29 01:27:30;;;;;;;10.00;2.30;;;15.00;99.90;;;;;;5035295;28;20408;-89
2022/10/29 01:30:17;;;;;;;9.97;2.73;;;15.00;99.90;;;;;;5035309;28;20445;-89
2022/10/29 01:33:03;;;;;;;8.97;2.07;;;15.00;99.90;;;;;;5034682;28;20425;-87
2022/10/29 01:35:44;;;;;;;7.53;2.27;;;14.90;99.90;;;;;;5034956;28;20497;-87
2022/10/29 01:38:33;;;;;;;9.30;3.40;;;14.90;99.90;;;;;;5035038;28;20470;-88
2022/10/29 01:41:14;;;;;;;7.90;3.33;;;14.90;99.90;;;;;;5035062;28;20416;-88
2022/10/29 01:43:48;;;;;;;8.40;2.90;;;14.90;99.90;;;;;;5034924;28;20470;-88
2022/10/29 01:46:18;;;;;;;4.37;1.43;;;14.90;99.90;;;;;;5017644;28;20518;-88
2022/10/29 01:48:48;;;;;;;5.43;2.07;;;14.90;99.90;;;;;;5034568;28;20424;-87
2022/10/29 01:51:20;;;;;;;7.97;1.73;;;14.90;99.90;;;;;;5034732;28;20545;-85
2022/10/29 01:53:45;;;;;;;9.37;3.00;;;14.90;99.90;;;;;;5034563;28;20460;-89
2022/10/29 01:56:11;;;;;;;5.23;2.50;;;14.90;99.90;;;;;;5034627;28;20428;-86
2022/10/29 01:58:40;;;;;;;6.43;2.30;;;14.90;99.90;;;;;;5034770;28;20195;-86
2022/10/29 02:01:46;;;;;;;6.87;1.93;;;14.90;99.90;;;;;;5034545;28;20169;-88
2022/10/29 02:04:21;;;;;;;7.83;2.70;;;14.80;99.90;;;;;;5022557;28;20856;-85
2022/10/29 02:07:18;;;;;;;3.80;2.27;;;14.90;99.90;;;;;;5034520;28;20428;-84
2022/10/29 02:09:54;;;;;;;9.40;2.90;;;14.90;99.90;;;;;;5016663;28;20501;-88
2022/10/29 02:12:29;;;;;;;9.23;2.50;;;15.00;99.90;;;;;;5034364;28;20422;-87
2022/10/29 02:15:01;;;;;;;9.30;2.20;;;14.90;99.90;;;;;;5034386;28;20402;-87
2022/10/29 02:17:30;;;;;;;8.67;2.50;;;14.90;99.90;;;;;;5034385;28;20967;-88
2022/10/29 02:19:56;;;;;;;15.33;4.17;;;14.80;99.90;;;;;;5033766;28;20448;-88
2022/10/29 02:22:21;;;;;;;12.30;3.37;;;14.80;99.90;;;;;;5034208;28;20422;-88
2022/10/29 02:24:47;;;;;;;14.13;3.33;;;14.80;99.90;;;;;;5016675;28;20263;-89
2022/10/29 02:27:12;;;;;;;12.70;3.87;;;14.60;99.90;;;;;;5034456;28;20175;-88
2022/10/29 02:29:38;;;;;;;8.07;3.70;;;14.60;99.90;;;;;;5034243;28;20631;-89
2022/10/29 02:32:03;;;;;;;6.30;2.00;;;14.60;99.90;;;;;;5034367;28;20173;-86
2022/10/29 02:34:29;;;;;;;13.27;2.77;;;14.50;99.90;;;;;;5033779;28;20637;-85
2022/10/29 02:36:54;;;;;;;9.37;3.23;;;14.40;99.90;;;;;;5034014;28;20206;-88
2022/10/29 02:39:20;;;;;;;8.70;2.87;;;14.20;99.90;;;;;;5034127;28;20688;-88
2022/10/29 02:41:45;;;;;;;6.33;2.73;;;14.10;99.90;;;;;;5033992;28;20203;-89
2022/10/29 02:44:11;;;;;;;8.80;3.07;;;14.00;99.90;;;;;;5015610;28;20179;-86
2022/10/29 02:46:38;;;;;;;9.70;3.27;;;13.90;99.90;;;;;;5034048;28;20583;-87
2022/10/29 02:49:04;;;;;;;8.70;3.17;;;13.90;99.90;;;;;;5033671;28;20194;-87
2022/10/29 02:51:30;;;;;;;6.90;3.37;;;13.90;99.90;;;;;;5033506;28;20474;-89
2022/10/29 02:53:55;;;;;;;10.87;2.33;;;14.00;99.90;;;;;;5011714;28;20431;-90
2022/10/29 02:56:21;;;;;;;7.63;2.53;;;14.00;99.90;;;;;;5033914;28;20187;-85
2022/10/29 02:58:46;;;;;;;8.77;3.20;;;14.10;99.90;;;;;;5053746;28;20249;-87
2022/10/29 03:01:12;;;;;;;10.50;2.23;;;14.20;99.90;;;;;;5053841;28;20668;-87
2022/10/29 03:03:37;;;;;;;6.07;3.27;;;14.20;99.90;;;;;;5035687;28;20183;-90
2022/10/29 03:06:03;;;;;;;8.57;3.00;;;14.30;99.90;;;;;;5016747;28;20173;-87
2022/10/29 03:08:28;;;;;;;8.30;3.33;;;14.30;99.90;;;;;;5033758;28;20169;-88
2022/10/29 03:10:54;;;;;;;10.50;3.27;;;14.20;99.90;;;;;;5017890;28;20751;-84
2022/10/29 03:13:20;;;;;;;8.93;3.13;;;14.20;99.90;;;;;;5013998;28;20189;-85
2022/10/29 03:15:46;;;;;;;5.80;3.10;;;14.10;99.90;;;;;;4996340;28;20471;-85
2022/10/29 03:18:11;;;;;;;7.70;2.60;;;14.00;99.90;;;;;;5013735;28;20217;-89
2022/10/29 03:20:37;;;;;;;10.20;3.20;;;14.00;99.90;;;;;;5012853;28;20170;-88
2022/10/29 03:23:02;;;;;;;8.10;2.93;;;13.90;99.90;;;;;;5013859;28;20173;-88
2022/10/29 03:25:28;;;;;;;7.23;3.57;;;13.90;99.90;;;;;;5013996;28;20227;-89
2022/10/29 03:27:53;;;;;;;9.17;3.87;;;13.90;99.90;;;;;;5013849;28;20538;-88
2022/10/29 03:30:19;;;;;;;6.40;2.43;;;13.80;99.90;;;;;;5013831;28;20176;-87
2022/10/29 03:32:46;;;;;;;9.60;2.73;;;13.90;99.90;;;;;;5013710;28;20658;-89
2022/10/29 03:35:13;;;;;;;12.53;2.90;;;13.90;99.90;;;;;;5013309;28;20179;-85
2022/10/29 03:37:39;;;;;;;6.03;3.07;;;13.90;99.90;;;;;;5013433;28;20812;-89
2022/10/29 03:40:06;;;;;;;9.37;3.40;;;13.90;99.90;;;;;;5013458;28;20462;-85
2022/10/29 03:42:32;;;;;;;5.20;2.93;;;13.90;99.90;;;;;;5013535;28;20420;-89
2022/10/29 03:44:58;;;;;;;9.33;3.87;;;13.80;99.90;;;;;;5013643;28;20417;-89
2022/10/29 03:47:25;;;;;;;5.40;2.73;;;13.90;99.90;;;;;;5013681;28;20183;-87
2022/10/29 03:49:50;;;;;;;12.00;3.80;;;13.80;99.90;;;;;;5013172;28;20481;-89
2022/10/29 03:52:16;;;;;;;8.97;3.33;;;13.70;99.90;;;;;;5013423;28;20760;-85
2022/10/29 03:54:41;;;;;;;5.30;2.73;;;13.70;99.90;;;;;;4997865;28;20173;-87
2022/10/29 03:57:07;;;;;;;8.63;3.17;;;13.70;99.90;;;;;;5017427;28;20210;-89
2022/10/29 03:59:32;;;;;;;8.33;3.17;;;13.60;99.90;;;;;;4999872;28;20175;-88
2022/10/29 04:01:58;;;;;;;10.60;3.30;;;13.50;99.90;;;;;;5017374;28;20178;-86
2022/10/29 04:04:23;;;;;;;7.47;2.53;;;13.40;99.90;;;;;;5017045;28;20759;-87
2022/10/29 04:06:49;;;;;;;10.50;3.87;;;13.40;99.90;;;;;;5017261;28;20183;-84
2022/10/29 04:09:14;;;;;;;5.93;4.20;;;13.40;99.90;;;;;;5017346;28;20173;-84
2022/10/29 04:11:40;;;;;;;6.43;2.17;;;13.50;99.90;;;;;;5017221;28;20178;-84
2022/10/29 04:14:05;;;;;;;4.70;2.60;;;13.50;99.90;;;;;;5016643;28;20199;-85
2022/10/29 04:16:31;;;;;;;9.93;3.80;;;13.60;99.90;;;;;;5016766;28;20218;-84
2022/10/29 04:18:57;;;;;;;8.63;3.47;;;13.60;99.90;;;;;;5016714;28;20182;-88
2022/10/29 04:21:23;;;;;;;10.60;3.97;;;13.70;99.90;;;;;;4999529;28;20300;-88
2022/10/29 04:23:49;;;;;;;5.17;2.80;;;13.70;99.90;;;;;;4999204;28;20431;-85
2022/10/29 04:26:15;;;;;;;6.63;2.67;;;13.70;99.90;;;;;;5016885;28;20575;-85
2022/10/29 04:28:40;;;;;;;7.33;3.00;;;13.70;99.90;;;;;;5016773;28;20211;-84
2022/10/29 04:31:07;;;;;;;9.10;3.80;;;13.70;99.90;;;;;;5016840;28;20174;-86
2022/10/29 04:33:33;;;;;;;8.57;3.33;;;13.80;99.90;;;;;;5016387;28;20181;-87
2022/10/29 04:35:58;;;;;;;6.03;2.60;;;13.80;99.90;;;;;;5016610;28;20510;-89
2022/10/29 04:38:24;;;;;;;6.97;2.70;;;13.80;99.90;;;;;;5016521;28;20208;-88
2022/10/29 04:40:49;;;;;;;9.50;3.37;;;13.90;99.90;;;;;;5016562;28;20540;-90
2022/10/29 04:43:15;;;;;;;11.37;4.00;;;13.90;99.90;;;;;;5016505;28;20174;-85
2022/10/29 04:45:41;;;;;;;7.83;3.70;;;14.00;99.90;;;;;;5016498;28;20186;-85
2022/10/29 04:48:07;;;;;;;9.83;3.70;;;14.00;99.90;;;;;;5016122;28;20491;-87
2022/10/29 04:50:35;;;;;;;11.50;3.93;;;14.10;99.90;;;;;;5016180;28;20274;-85
2022/10/29 04:53:02;;;;;;;11.80;4.17;;;14.10;99.90;;;;;;5016347;28;20195;-87
2022/10/29 04:55:28;;;;;;;11.90;4.90;;;14.10;99.90;;;;;;5016188;28;20417;-85
2022/10/29 04:57:54;;;;;;;10.97;4.70;;;14.10;99.90;;;;;;5016225;28;20475;-88
2022/10/29 05:00:20;;;;;;;9.23;3.87;;;14.10;99.90;;;;;;5016275;28;20181;-85
2022/10/29 05:02:50;;;;;;;10.67;5.43;;;14.10;99.90;;;;;;5015983;28;20263;-85
2022/10/29 05:05:17;;;;;;;13.90;5.13;;;14.10;99.90;;;;;;5014721;28;20417;-86
2022/10/29 05:07:43;;;;;;;10.20;5.23;;;14.10;99.90;;;;;;5015483;28;20420;-84
2022/10/29 05:10:09;;;;;;;12.13;4.27;;;14.00;99.90;;;;;;5015779;28;20421;-85
2022/10/29 05:12:34;;;;;;;10.10;5.17;;;14.00;99.90;;;;;;5015718;28;20832;-87
2022/10/29 05:15:00;;;;;;;10.67;4.40;;;14.00;99.90;;;;;;5015708;28;20411;-84
2022/10/29 05:17:25;;;;;;;10.20;4.00;;;13.90;99.90;;;;;;4998054;28;20650;-85
2022/10/29 05:19:51;;;;;;;12.07;4.23;;;13.90;99.90;;;;;;5015251;28;20642;-86
2022/10/29 05:22:16;;;;;;;10.73;5.00;;;13.90;99.90;;;;;;5015580;28;20180;-86
2022/10/29 05:24:42;;;;;;;12.63;4.27;;;14.00;99.90;;;;;;4997865;28;20537;-85
2022/10/29 05:27:07;;;;;;;9.60;4.87;;;14.00;99.90;;;;;;5015413;28;20293;-84
2022/10/29 05:29:33;;;;;;;9.20;4.37;;;14.00;99.90;;;;;;5015429;28;20697;-85
2022/10/29 05:31:58;;;;;;;15.07;5.40;;;14.00;99.90;;;;;;5015334;28;20177;-85
2022/10/29 05:34:24;;;;;;;11.90;5.03;;;14.00;99.90;;;;;;4997419;28;20275;-84
2022/10/29 05:36:50;;;;;;;10.33;3.80;;;14.00;99.90;;;;;;5015234;28;20666;-84
2022/10/29 05:39:15;;;;;;;8.63;5.57;;;13.90;99.90;;;;;;5016810;28;20186;-82
2022/10/29 05:41:41;;;;;;;16.07;6.30;;;13.90;99.90;;;;;;5033338;28;20537;-84
2022/10/29 05:44:06;;;;;;;7.67;4.70;;;13.90;99.90;;;;;;5029062;28;20191;-84
2022/10/29 05:46:32;;;;;;;8.60;4.10;;;13.90;99.90;;;;;;5031880;28;20185;-84
2022/10/29 05:48:57;;;;;;;9.30;5.53;;;13.80;99.90;;;;;;5028850;28;20202;-85
2022/10/29 05:51:23;;;;;;;10.30;4.80;;;13.80;99.90;;;;;;5015119;28;20755;-85
2022/10/29 05:53:48;;;;;;;10.83;4.77;;;13.70;99.90;;;;;;5015075;28;20168;-84
2022/10/29 05:56:14;;;;;;;10.60;5.07;;;13.70;99.90;;;;;;5029261;28;20669;-84
2022/10/29 05:58:39;;;;;;;11.70;4.90;;;13.50;99.90;;;;;;5034631;28;20176;-84
2022/10/29 06:01:07;;;;;;;9.50;4.47;;;13.40;99.90;;;;;;5034569;28;20178;-84
2022/10/29 06:03:32;;;;;;;10.10;5.27;;;13.30;99.90;;;;;;5034227;28;20169;-84
2022/10/29 06:05:58;;;;;;;7.83;4.50;;;13.30;99.90;;;;;;5034442;28;20468;-84
2022/10/29 06:08:23;;;;;;;12.80;5.40;;;13.20;99.90;;;;;;5033141;28;20238;-84
2022/10/29 06:10:49;;;;;;;9.20;5.10;;;13.10;99.90;;;;;;5034312;28;20181;-85
2022/10/29 06:13:17;;;;;;;10.03;5.10;;;13.10;99.90;;;;;;5034301;28;20171;-85
2022/10/29 06:15:43;;;;;;;10.30;4.20;;;13.00;99.90;;;;;;5034270;28;20179;-85
2022/10/29 06:18:09;;;;;;;11.20;5.07;;;13.00;99.90;;;;;;5033600;28;20503;-85
2022/10/29 06:20:36;;;;;;;13.57;3.77;;;12.90;99.90;;;;;;5034161;28;20462;-85
2022/10/29 06:23:02;;;;;;;10.30;3.80;;;12.90;99.90;;;;;;5034139;28;20187;-84
2022/10/29 06:25:30;;;;;;;8.40;4.20;;;12.90;99.90;;;;;;5034041;28;20415;-84
2022/10/29 06:28:01;;;;;;;10.67;4.73;;;12.80;99.90;;;;;;5033957;28;20185;-84
2022/10/29 06:30:28;;;;;;;9.27;4.73;;;12.80;99.90;;;;;;5034107;28;20401;-85
2022/10/29 06:32:53;;;;;;;7.03;3.70;;;12.80;99.90;;;;;;5033628;28;20416;-84
2022/10/29 06:35:19;;;;;;;6.30;3.47;;;12.70;99.90;;;;;;5033869;28;20508;-84
2022/10/29 06:37:44;;;;;;;11.10;3.87;;;12.70;99.90;;;;;;5033876;28;20237;-85
2022/10/29 06:40:10;;;;;;;8.00;4.20;;;12.70;99.90;;;;;;5032548;28;20215;-84
2022/10/29 06:42:35;;;;;;;9.93;3.97;;;12.70;99.90;;;;;;5033819;28;20172;-84
2022/10/29 06:45:01;;;;;;;13.67;4.90;;;12.70;99.90;;;;;;5032467;28;20175;-84
2022/10/29 06:47:26;;;;;;;10.20;4.57;;;12.80;99.90;;;;;;5032410;28;20175;-85
2022/10/29 06:49:52;;;;;;;8.60;4.17;;;12.80;99.90;;;;;;5033133;28;20235;-84
2022/10/29 06:52:17;;;;;;;11.33;5.53;;;12.80;99.90;;;;;;5033734;28;20692;-85
2022/10/29 06:54:43;;;;;;;9.60;5.57;;;12.90;99.90;;;;;;5033588;28;20167;-85
2022/10/29 06:57:08;;;;;;;11.77;5.13;;;13.00;99.90;;;;;;5033539;28;20571;-84
2022/10/29 06:59:34;;;;;;;8.13;6.37;;;13.10;99.90;;;;;;5033500;28;20165;-85
2022/10/29 07:01:59;;;;;;;12.50;6.10;;;13.10;99.90;;;;;;5033493;28;20255;-84
2022/10/29 07:04:25;;;;;;;11.30;5.63;;;13.20;99.90;;;;;;5033091;28;20167;-85
2022/10/29 07:06:50;;;;;;;16.43;5.97;;;13.20;99.90;;;;;;5033283;28;20260;-85
2022/10/29 07:09:16;;;;;;;11.90;5.50;;;13.20;99.90;;;;;;5033369;28;20232;-84
2022/10/29 07:11:41;;;;;;;8.13;4.53;;;13.20;99.90;;;;;;5033312;28;20182;-85
2022/10/29 07:14:08;;;;;;;9.17;5.33;;;13.20;99.90;;;;;;5033634;28;20181;-86
2022/10/29 07:16:34;;;;;;;7.07;4.47;;;13.20;99.90;;;;;;5033365;28;20592;-84
2022/10/29 07:19:00;;;;;;;10.83;5.53;;;13.10;99.90;;;;;;5032861;28;20429;-85
2022/10/29 07:21:26;;;;;;;8.37;5.67;;;13.20;99.90;;;;;;5033376;28;20892;-85
2022/10/29 07:23:51;;;;;;;13.20;4.83;;;13.10;99.90;;;;;;5033191;28;20427;-85
2022/10/29 07:26:16;;;;;;;9.20;6.13;;;13.20;99.90;;;;;;5033381;28;20222;-84
2022/10/29 07:28:42;;;;;;;9.53;5.87;;;13.20;99.90;;;;;;5032557;28;20292;-86
2022/10/29 07:31:07;;;;;;;9.63;6.70;;;13.20;99.90;;;;;;5033206;28;20178;-86
2022/10/29 07:33:33;;;;;;;11.27;6.13;;;13.30;99.90;;;;;;5033075;28;20646;-86
2022/10/29 07:35:59;;;;;;;12.07;7.20;;;13.30;99.90;;;;;;5033245;28;20176;-86
2022/10/29 07:38:25;;;;;;;13.90;8.60;;;13.30;99.90;;;;;;5033071;28;20212;-88
2022/10/29 07:40:51;;;;;;;13.07;7.53;;;13.50;99.90;;;;;;5033245;28;20427;-87
2022/10/29 07:43:18;;;;;;;13.17;6.67;;;13.50;99.90;;;;;;5033081;28;20503;-85
2022/10/29 07:45:46;;;;;;;11.93;5.97;;;13.50;99.90;;;;;;5033194;28;20414;-85
2022/10/29 07:48:11;;;;;;;12.20;7.03;;;13.50;99.90;;;;;;5032761;28;20412;-85
2022/10/29 07:50:37;;;;;;;15.47;8.23;;;13.60;99.90;;;;;;5031518;28;20478;-85
2022/10/29 07:53:05;;;;;;;13.10;6.77;;;13.70;99.90;;;;;;5033119;28;20183;-85
2022/10/29 07:55:30;;;;;;;9.87;6.27;;;13.70;99.90;;;;;;5032938;28;20424;-85
2022/10/29 07:57:57;;;;;;;10.90;6.13;;;13.80;99.90;;;;;;5032862;28;20553;-85
2022/10/29 08:00:24;;;;;;;13.27;6.70;;;13.90;99.90;;;;;;5032916;28;20168;-85
2022/10/29 08:02:54;;;;;;;13.90;7.63;;;13.90;99.90;;;;;;5032490;28;20949;-84
2022/10/29 08:05:20;;;;;;;14.60;6.50;;;14.00;99.90;;;;;;5032865;28;20421;-87
2022/10/29 08:07:45;;;;;;;15.40;8.37;;;14.00;99.90;;;;;;5032846;28;20422;-85
2022/10/29 08:10:11;;;;;;;14.17;7.60;;;14.00;99.90;;;;;;5032795;28;20933;-85
2022/10/29 08:12:36;;;;;;;13.40;7.83;;;14.10;99.90;;;;;;5032817;28;20206;-84
2022/10/29 08:15:04;;;;;;;14.83;8.43;;;14.20;99.90;;;;;;5031566;28;20171;-85
2022/10/29 08:17:30;;;;;;;12.73;9.20;;;14.20;99.90;;;;;;5032184;28;20326;-87
2022/10/29 08:19:56;;;;;;;12.70;6.27;;;14.30;99.90;;;;;;5032787;28;20418;-85
2022/10/29 08:22:22;;;;;;;12.77;7.50;;;14.30;99.90;;;;;;5032891;28;20427;-86
2022/10/29 08:24:47;;;;;;;12.87;6.63;;;14.40;99.90;;;;;;5032813;28;20169;-86
2022/10/29 08:27:12;;;;;;;17.07;7.80;;;14.40;99.90;;;;;;5032946;28;20176;-84
2022/10/29 08:29:38;;;;;;;13.20;7.77;;;14.40;99.90;;;;;;5032836;28;20528;-84
2022/10/29 08:32:04;;;;;;;17.80;8.57;;;14.40;99.90;;;;;;5032771;28;20221;-86
2022/10/29 08:34:29;;;;;;;17.33;7.60;;;14.40;99.90;;;;;;5032491;28;20172;-86
2022/10/29 08:36:55;;;;;;;16.07;8.83;;;14.40;99.90;;;;;;5032875;28;20193;-89
2022/10/29 08:39:20;;;;;;;15.93;8.90;;;14.40;99.90;;;;;;5031510;28;20185;-85
2022/10/29 08:42:00;;;;;;;16.40;8.73;;;14.50;99.90;;;;;;5035977;28;20627;-86
2022/10/29 08:44:42;;;;;;;16.63;9.30;;;14.50;99.90;;;;;;5051701;28;20173;-88
2022/10/29 08:47:13;;;;;;;18.93;9.57;;;14.50;99.90;;;;;;5036110;28;20915;-86
2022/10/29 08:49:54;;;;;;;20.83;9.87;;;14.60;99.90;;;;;;5035688;28;20451;-88
2022/10/29 08:52:27;;;;;;;17.37;8.23;;;14.50;99.90;;;;;;5036414;28;20809;-86
2022/10/29 08:55:16;;;;;;;19.30;10.07;;;14.60;99.90;;;;;;5036142;28;20416;-85
2022/10/29 08:57:53;;;;;;;17.93;9.73;;;14.70;99.90;;;;;;5036096;28;20517;-85
2022/10/29 09:00:22;;;;;;;19.43;10.80;;;14.70;99.90;;;;;;5035887;28;20468;-88
2022/10/29 09:02:54;;;;;;;21.80;9.70;;;14.70;99.90;;;;;;5034428;28;20464;-84
2022/10/29 09:05:25;;;;;;;19.33;9.90;;;14.80;99.90;;;;;;5035825;28;20782;-84
2022/10/29 09:08:33;;;;;;;28.57;12.20;;;14.70;99.90;;;;;;5051232;28;20468;-85
2022/10/29 09:11:14;;;;;;;22.43;11.93;;;14.70;99.90;;;;;;5035661;28;20409;-84
2022/10/29 09:13:45;;;;;;;21.67;11.40;;;14.80;99.90;;;;;;5035627;28;20564;-86
2022/10/29 09:16:13;;;;;;;19.73;11.20;;;14.90;99.90;;;;;;5035723;28;20410;-84
2022/10/29 09:18:54;;;;;;;17.97;10.23;;;14.90;99.90;;;;;;5035126;28;20540;-86
2022/10/29 09:21:27;;;;;;;22.50;10.20;;;14.90;99.90;;;;;;5035622;28;20412;-86
2022/10/29 09:24:12;;;;;;;18.90;10.00;;;14.90;99.90;;;;;;5035483;28;20411;-85
2022/10/29 09:30:04;;;;;;;21.10;10.57;;;14.90;99.90;;;;;;5029955;28;20926;-84
2022/10/29 09:32:42;;;;;;;18.60;10.30;;;14.90;99.90;;;;;;5033665;28;20837;-86
2022/10/29 09:35:16;;;;;;;17.47;9.60;;;15.00;99.90;;;;;;5035386;28;20414;-85
2022/10/29 09:37:55;;;;;;;19.30;10.40;;;15.00;99.90;;;;;;5035160;28;20484;-85
2022/10/29 09:40:41;;;;;;;19.50;10.50;;;14.90;99.90;;;;;;5023041;28;20420;-85
2022/10/29 09:43:27;;;;;;;29.30;12.00;;;15.00;99.90;;;;;;5035194;28;20838;-85
2022/10/29 09:46:07;;;;;;;26.87;11.20;;;15.10;99.90;;;;;;5035216;28;20514;-84
2022/10/29 09:48:41;;;;;;;18.17;10.93;;;15.20;99.90;;;;;;5016971;28;20421;-85
2022/10/29 09:51:29;;;;;;;21.27;10.77;;;15.30;99.90;;;;;;5034730;28;20452;-84
2022/10/29 09:53:55;;;;;;;22.27;9.77;;;15.40;99.90;;;;;;5034847;28;20421;-84
2022/10/29 09:56:21;;;;;;;18.93;10.77;;;15.40;99.90;;;;;;5012863;28;20429;-85
2022/10/29 09:58:53;;;;;;;18.43;10.37;;;15.40;99.90;;;;;;5040663;28;20243;-85
2022/10/29 10:01:19;;;;;;;17.53;9.27;;;15.50;99.90;;;;;;5034756;28;20164;-85
2022/10/29 10:03:51;;;;;;;18.30;8.37;;;15.50;99.90;;;;;;5034469;28;20418;-85
2022/10/29 10:06:20;;;;;;;18.27;8.80;;;15.40;99.90;;;;;;5034446;28;20186;-86
2022/10/29 10:08:57;;;;;;;23.50;12.33;;;15.40;99.90;;;;;;5034464;28;20409;-85
2022/10/29 10:11:23;;;;;;;15.43;9.20;;;15.50;99.90;;;;;;5034351;28;20419;-85
2022/10/29 10:13:59;;;;;;;18.53;8.80;;;15.50;99.90;;;;;;5034487;28;20419;-88
2022/10/29 10:16:31;;;;;;;15.90;9.30;;;15.50;99.90;;;;;;5033981;28;20427;-85
2022/10/29 10:18:56;;;;;;;20.53;10.77;;;15.60;99.90;;;;;;5033978;28;20429;-85
2022/10/29 10:21:30;;;;;;;27.57;11.10;;;15.60;99.90;;;;;;5034480;28;20772;-85
2022/10/29 10:23:56;;;;;;;20.30;9.30;;;15.60;99.90;;;;;;5034422;28;20177;-85
2022/10/29 10:26:28;;;;;;;16.50;9.37;;;15.70;99.90;;;;;;5034400;28;20421;-87
2022/10/29 10:29:10;;;;;;;17.20;8.80;;;15.70;99.90;;;;;;5034240;28;20420;-85
2022/10/29 10:31:36;;;;;;;17.73;8.57;;;15.80;99.90;;;;;;5034318;28;20405;-85
2022/10/29 10:34:16;;;;;;;24.13;10.77;;;15.90;99.90;;;;;;5033815;28;20497;-86
2022/10/29 10:36:46;;;;;;;11.97;8.90;;;15.90;99.90;;;;;;5034100;28;20408;-86
2022/10/29 10:39:22;;;;;;;19.03;9.80;;;15.90;99.90;;;;;;5016263;28;20439;-85
2022/10/29 10:41:49;;;;;;;12.77;8.70;;;16.10;99.90;;;;;;5034058;28;20422;-85
2022/10/29 10:44:15;;;;;;;15.87;8.57;;;16.20;99.90;;;;;;5033958;28;20417;-86
2022/10/29 10:46:43;;;;;;;15.87;8.80;;;16.50;99.90;;;;;;5033902;28;20418;-86
2022/10/29 10:49:29;;;;;;;18.03;8.50;;;16.80;99.90;;;;;;5033324;28;20467;-85
2022/10/29 10:51:55;;;;;;;11.30;7.53;;;17.00;99.90;;;;;;5033876;28;20452;-85
2022/10/29 10:54:28;;;;;;;19.00;8.50;;;17.00;99.90;;;;;;5033865;28;20468;-87
2022/10/29 10:57:00;;;;;;;22.63;9.37;;;17.20;99.90;;;;;;5034187;28;20462;-86
2022/10/29 10:59:39;;;;;;;15.67;8.20;;;17.50;99.90;;;;;;5034316;28;20418;-89
2022/10/29 11:02:12;;;;;;;15.53;7.83;;;17.70;99.90;;;;;;5016860;28;20939;-86
2022/10/29 11:04:41;;;;;;;11.70;7.20;;;17.70;99.90;;;;;;5033739;28;20405;-85
2022/10/29 11:07:12;;;;;;;15.67;8.37;;;17.80;99.90;;;;;;5048307;28;20943;-86
2022/10/29 11:09:47;;;;;;;11.73;6.87;;;17.80;99.90;;;;;;5042774;28;20414;-87
2022/10/29 11:12:54;;;;;;;14.73;8.27;;;17.80;99.90;;;;;;5043603;28;20421;-86
2022/10/29 11:15:34;;;;;;;13.80;7.57;;;17.50;99.90;;;;;;4959872;28;20766;-87
2022/10/29 11:18:23;;;;;;;10.00;6.73;;;17.40;99.90;;;;;;4979008;28;20627;-86
2022/10/29 11:21:20;;;;;;;14.63;5.90;;;17.40;99.90;;;;;;4986593;28;20412;-85
2022/10/29 11:24:20;;;;;;;13.10;6.47;;;17.40;99.90;;;;;;4960758;28;20439;-86
2022/10/29 11:27:01;;;;;;;11.20;6.03;;;17.50;99.90;;;;;;5003074;28;20507;-85
2022/10/29 11:29:50;;;;;;;10.37;6.33;;;17.60;99.90;;;;;;5025803;28;20424;-87
2022/10/29 11:32:38;;;;;;;17.20;8.10;;;17.60;99.90;;;;;;5042521;28;20417;-88
2022/10/29 11:35:30;;;;;;;13.93;7.20;;;17.70;99.90;;;;;;5039887;28;20929;-85
2022/10/29 11:38:27;;;;;;;13.67;6.27;;;17.80;99.90;;;;;;5042518;28;20530;-84
2022/10/29 11:41:03;;;;;;;14.03;6.33;;;17.90;99.90;;;;;;5016233;28;20419;-85
2022/10/29 11:43:30;;;;;;;15.77;5.87;;;18.00;99.90;;;;;;5041464;28;20400;-87
2022/10/29 11:46:17;;;;;;;8.40;4.83;;;18.20;99.90;;;;;;5035095;28;20464;-84
2022/10/29 11:49:06;;;;;;;9.80;5.07;;;18.20;99.90;;;;;;5039974;28;20423;-84
2022/10/29 11:51:47;;;;;;;11.20;5.13;;;18.10;99.90;;;;;;5032872;28;20832;-84
2022/10/29 11:54:59;;;;;;;7.50;5.50;;;18.10;99.90;;;;;;5032997;28;20424;-85
2022/10/29 11:57:39;;;;;;;9.13;5.00;;;18.20;99.90;;;;;;5032862;28;20483;-87
2022/10/29 12:00:18;;;;;;;16.00;4.70;;;18.00;99.90;;;;;;5036834;28;20436;-84
2022/10/29 12:02:58;;;;;;;13.40;6.20;;;17.90;99.90;;;;;;5013056;28;20485;-87
2022/10/29 12:05:40;;;;;;;10.40;5.50;;;17.90;99.90;;;;;;5013276;28;20471;-85
2022/10/29 12:08:15;;;;;;;6.70;4.20;;;17.90;99.90;;;;;;5013161;28;20409;-87
2022/10/29 12:10:54;;;;;;;12.67;5.10;;;17.90;99.90;;;;;;5012989;28;20803;-88
2022/10/29 12:13:30;;;;;;;12.47;6.13;;;18.00;99.90;;;;;;5013322;28;20777;-86
2022/10/29 12:16:16;;;;;;;13.73;5.10;;;18.10;99.90;;;;;;5015392;28;20410;-85
2022/10/29 12:18:54;;;;;;;8.17;4.63;;;17.90;99.90;;;;;;5016569;28;20482;-86
2022/10/29 12:21:41;;;;;;;8.50;4.30;;;17.90;99.90;;;;;;5017034;28;20449;-88
2022/10/29 12:24:24;;;;;;;10.10;3.67;;;17.90;99.90;;;;;;5016762;28;20822;-85
2022/10/29 12:27:03;;;;;;;6.80;4.30;;;17.90;99.90;;;;;;5016593;28;20509;-84
2022/10/29 12:29:48;;;;;;;11.40;5.37;;;18.00;99.90;;;;;;5016654;28;20476;-84
2022/10/29 12:32:24;;;;;;;8.10;5.10;;;18.00;99.90;;;;;;5016131;28;20431;-85
2022/10/29 12:35:09;;;;;;;6.30;3.97;;;18.10;99.90;;;;;;5016574;28;20433;-84
2022/10/29 12:38:10;;;;;;;9.93;3.97;;;18.10;99.90;;;;;;5016524;28;21004;-84
2022/10/29 12:40:40;;;;;;;9.37;3.87;;;18.20;99.90;;;;;;5016350;28;20412;-84
2022/10/29 12:43:21;;;;;;;8.00;5.20;;;18.10;99.90;;;;;;4998718;28;20451;-85
2022/10/29 12:46:02;;;;;;;6.50;4.13;;;18.10;99.90;;;;;;4998688;28;20510;-84
2022/10/29 12:48:38;;;;;;;7.43;3.63;;;18.00;99.90;;;;;;4998229;28;20952;-84
2022/10/29 12:51:34;;;;;;;7.90;4.33;;;18.00;99.90;;;;;;5015801;28;20442;-83
2022/10/29 12:54:19;;;;;;;7.33;3.97;;;18.00;99.90;;;;;;5016134;28;20497;-84
2022/10/29 12:56:45;;;;;;;7.30;3.60;;;18.00;99.90;;;;;;5015844;28;20410;-84
2022/10/29 12:59:22;;;;;;;11.30;3.90;;;18.00;99.90;;;;;;5015992;28;20487;-84
2022/10/29 13:01:51;;;;;;;8.83;4.17;;;18.10;99.90;;;;;;5015397;28;20809;-84
2022/10/29 13:04:23;;;;;;;8.40;3.27;;;18.20;99.90;;;;;;5015834;28;20476;-84